Hesperia, CA

12:05 PM PDT on April 25, 2015 (GMT -0700)
High Desert Mesa | | Change Station
CLOSE
Current Station
Personal Weather Station
Location: Hesperia, CA
Elevation: 3251 ft
Nearby Weather Stations
Active Advisory: Wind Advisory Active Notice: Record Report

Elev 3251 ft 34.39 °N, 117.29 °W | Updated 12 seconds ago

Mostly Cloudy
Mostly Cloudy
53.4 °F
Feels Like 53.4 °F
N
15.0
Wind Variable Wind from SSW
Gusts 17.4 mph

Today
High -- | Low -- °F
--% Chance of Precip.
Yesterday
High -- | Low -- °F
Precip. -- in
6:05 AM 7:28 PM
Waxing Crescent, 48% visible
Pressure 29.90 in
Visibility 10.0 miles
Clouds Overcast 6000 ft
Dew Point 46 °F
Humidity 77%
Rainfall 0.00 in
Snow Depth Not available.
UV 3 out of 12
Pollen 6.10 out of 12
Air Quality Not available.
Flu Activity Sporadic
METAR KVCV 251855Z AUTO 26011G22KT 10SM OVC060 16/02 A2990 RMK AO2

More Conditions Fewer Conditions

Pressure 29.90 in
Visibility 10.0 miles
Clouds Overcast 6000 ft
Dew Point 46 °F
Humidity 77%
Rainfall 0.00 in
Snow Depth Not available.
UV 3 out of 12
Pollen 6.10 out of 12
Air Quality Not available.
Flu Activity Sporadic
METAR KVCV 251855Z AUTO 26011G22KT 10SM OVC060 16/02 A2990 RMK AO2

More Conditions Fewer Conditions

10-Day Weather Forecast

Almanac

Astronomy

Apr. 25, 2015 Rise Set
Actual Time
Civil Twilight
Nautical Twilight
Astronomical Twilight
Moon
Length of Visible Light
Length of Day
Tomorrow will be .
, % of the Moon is Illuminated

Today's Extremes

State Highs State Lows

Community

WunderPhotos

Upload Photos

1,816,768 photos uploaded!

WunderBlogs® & News

Nearby

Air Quality

  Air Quality AQ Index Pollutant
Not available.

Snow Depth

Station Depth Elevation

Earthquake Activity

City Distance Mag. Time & Date
Minimum magnitude displayed is 2.5.

Coastal Water Temperatures

Place Temperature

Stations

Nearby Weather Stations

Station Location Temp. Windchill Dew Point Humidity Wind Precip. Elev Updated Type
                   
Wind Advisory
Statement as of 3:17 AM PDT on April 25, 2015

... Wind Advisory remains in effect until 10 PM PDT this evening...

* winds... areas of west winds 20 to 30 mph with gusts to 45
mph... increasing to 25 to 35 mph with gusts to 55 mph this
afternoon and evening with isolated gusts to 65 mph.

* Timing... strongest winds this afternoon and evening...
diminishing late tonight.

* Location... east-west oriented mountain passes and along the
desert slopes and adjacent desert areas. Travel corridors
impacted include the I-8... I-10... and I-15.

* Visibility... reduced at times to one mile or less due to blowing
dust and sand.

* Impacts... strong winds will make travel hazardous for high
profile vehicles and could cause travel disruptions.

Precautionary/preparedness actions...

A Wind Advisory means that winds of 35 mph are expected. Winds
this strong can make driving difficult... especially for high
profile vehicles. Use extra caution.